Chesterton, IN (46304)

9:31 PM CDT on September 01, 2015 (GMT -0500)
Roxy Weather in Tamarack | | Change Station
CLOSE
Current Station
Personal Weather Station
Location: Chesterton, IN
Elevation: 650 ft
Nearby Weather Stations
Active Advisory: Air Quality Alert

Elev 650 ft 41.59 °N, 87.05 °W | Updated 59 seconds ago

Clear
Clear
77.0 °F
Feels Like 78 °F
N
1.6
Wind Variable Wind from SSE
Gusts 3.8 mph

Today
High -- | Low -- °F
--% Chance of Precip.
Yesterday
High -- | Low -- °F
Precip. -- in
6:13 AM 7:21 PM
Waning Gibbous, 84% visible
Pressure 30.06 in
Visibility 10.0 miles
Clouds Clear
Heat Index 78 °F
Dew Point 73 °F
Humidity 88%
Rainfall 0.00 in
Snow Depth Not available.
UV 0 out of 12
Pollen 10.60 out of 12
Air Quality Not available.
Flu Activity Not available.
METAR KVPZ 020156Z AUTO 20005KT 10SM CLR 24/21 A3007 RMK AO2 SLP177 T02390206 TSNO
Pressure 30.06 in
Visibility 10.0 miles
Clouds Clear
Heat Index 78 °F
Dew Point 73 °F
Humidity 88%
Rainfall 0.00 in
Snow Depth Not available.
UV 0 out of 12
Pollen 10.60 out of 12
Air Quality Not available.
Flu Activity Not available.
METAR KVPZ 020156Z AUTO 20005KT 10SM CLR 24/21 A3007 RMK AO2 SLP177 T02390206 TSNO

10-Day Weather Forecast

×

Almanac

Astronomy

Sep. 01, 2015 Rise Set
Actual Time
Civil Twilight
Nautical Twilight
Astronomical Twilight
Moon
Length of Visible Light
Length of Day
Tomorrow will be .
, % of the Moon is Illuminated

Today's Extremes

State Highs State Lows

Community

WunderPhotos

Upload Photos

1,851,681 photos uploaded!

WunderBlogs® & News

Nearby

Air Quality

  Air Quality AQ Index Pollutant
Not available.

Snow Depth

Station Depth Elevation

Earthquake Activity

City Distance Mag. Time & Date
Minimum magnitude displayed is 2.5.

Coastal Water Temperatures

Place Temperature

Stations

Nearby Weather Stations

Station Location Temp. Windchill Dew Point Humidity Wind Precip. Elev Updated Type
                   
Air Quality Alert
Statement as of 1:50 PM CDT on September 01, 2015

... Air quality alert in effect from 1 am Wednesday to 1 am CDT
Thursday...

An air quality action day has been forecast for lake and Porter
counties in Northwest Indiana and is in effect from 1 am
Wednesday to 1 am CDT Thursday.

Ozone levels are expected to be in the Orange or unhealthy for
sensitive groups range. For additional information... please visit
the idem smog watch web site at www.In.Gov/Apps/idem/smog/ or the
EPA airnow web site at www.Airnow.Gov and click on Indiana.


150 PM CDT Tue Sep 1 2015

... Air quality alert in effect from 1 am Wednesday to 1 am CDT
Thursday...

An air quality action day has been forecast for lake and Porter
counties in Northwest Indiana and is in effect from 1 am
Wednesday to 1 am CDT Thursday.

Ozone levels are expected to be in the Orange or unhealthy for
sensitive groups range. For additional information... please visit
the idem smog watch web site at www.In.Gov/Apps/idem/smog/ or the
EPA airnow web site at www.Airnow.Gov and click on Indiana.